createdAt,value
2023-02-23T00:01:25.257Z,19.95
2023-02-23T00:04:30.396Z,17.02
2023-02-23T00:07:34.706Z,6.07
2023-02-23T00:10:38.793Z,7.53
2023-02-23T00:13:46.655Z,15.80
2023-02-23T00:16:50.654Z,20.85
2023-02-23T00:19:54.524Z,56.17
2023-02-23T00:22:59.086Z,43.97
2023-02-23T00:26:05.003Z,25.75
2023-02-23T00:29:13.540Z,43.77
2023-02-23T00:32:20.601Z,36.55
2023-02-23T00:35:25.895Z,12.40
2023-02-23T00:38:29.528Z,41.63
2023-02-23T00:41:33.534Z,63.55
2023-02-23T00:44:41.113Z,37.20
2023-02-23T00:47:46.063Z,32.42
2023-02-23T00:51:02.545Z,40.38
2023-02-23T00:54:05.913Z,32.92
2023-02-23T00:57:09.627Z,24.42
2023-02-23T01:00:21.984Z,37.53
2023-02-23T01:03:24.984Z,48.40
2023-02-23T01:06:28.992Z,53.40
2023-02-23T01:09:34.235Z,51.33
2023-02-23T01:12:40.979Z,43.10
2023-02-23T01:15:45.212Z,60.28
2023-02-23T01:18:49.834Z,56.28
2023-02-23T01:21:53.831Z,44.35
2023-02-23T01:24:57.370Z,59.75
2023-02-23T01:28:01.566Z,53.42
2023-02-23T01:31:10.286Z,60.90
2023-02-23T01:34:14.939Z,64.03
2023-02-23T01:37:21.007Z,42.45
2023-02-23T01:40:32.094Z,24.63
2023-02-23T01:43:38.009Z,25.15
2023-02-23T01:46:47.028Z,28.48
2023-02-23T01:49:52.509Z,30.17
2023-02-23T01:52:57.239Z,29.13
2023-02-23T01:56:30.060Z,31.38
2023-02-23T01:59:53.264Z,28.88
2023-02-23T02:02:59.072Z,28.57
2023-02-23T02:06:04.956Z,32.25
2023-02-23T02:09:17.846Z,25.73
2023-02-23T02:12:23.890Z,17.97
2023-02-23T02:15:33.838Z,20.83
2023-02-23T02:18:48.328Z,18.52
2023-02-23T02:22:07.172Z,25.15
2023-02-23T02:25:30.005Z,25.90
2023-02-23T02:28:33.611Z,35.40
2023-02-23T02:32:12.652Z,43.33
2023-02-23T02:35:39.541Z,40.03
2023-02-23T02:39:11.102Z,44.80
2023-02-23T02:42:18.558Z,35.92
2023-02-23T02:45:29.762Z,38.08
2023-02-23T02:49:15.351Z,26.40
2023-02-23T02:52:18.702Z,28.38
2023-02-23T02:55:28.975Z,49.33
2023-02-23T02:58:34.688Z,40.50
2023-02-23T03:01:57.030Z,47.00
2023-02-23T03:05:19.350Z,45.78
2023-02-23T03:08:51.069Z,38.22
2023-02-23T03:12:26.865Z,41.55
2023-02-23T03:16:01.455Z,40.80
2023-02-23T03:19:34.563Z,36.25
2023-02-23T03:23:12.910Z,39.97
2023-02-23T03:27:01.775Z,54.22
2023-02-23T03:30:34.788Z,47.90
2023-02-23T03:34:04.116Z,56.42
2023-02-23T03:37:37.882Z,48.85
2023-02-23T03:41:03.221Z,50.67
2023-02-23T03:44:32.708Z,40.78
2023-02-23T03:47:58.680Z,31.40
2023-02-23T03:51:26.070Z,37.78
2023-02-23T03:54:55.538Z,29.70
2023-02-23T03:58:21.275Z,21.17
2023-02-23T04:01:45.910Z,21.52
2023-02-23T04:05:09.017Z,20.80
2023-02-23T04:08:34.044Z,10.23
2023-02-23T04:12:11.379Z,15.37
2023-02-23T04:15:34.816Z,7.07
2023-02-23T04:18:40.601Z,12.07
2023-02-23T04:21:43.501Z,6.72
2023-02-23T04:24:49.410Z,6.47
2023-02-23T04:27:52.687Z,9.38
2023-02-23T04:30:56.709Z,11.73
2023-02-23T04:34:00.353Z,11.07
2023-02-23T04:37:04.025Z,10.30
2023-02-23T04:40:07.813Z,7.72
2023-02-23T04:43:14.475Z,7.15
2023-02-23T04:46:18.302Z,8.20
2023-02-23T04:49:45.800Z,3.83
2023-02-23T04:52:49.665Z,5.22
2023-02-23T04:55:52.499Z,10.43
2023-02-23T04:58:56.527Z,6.77
2023-02-23T05:02:01.140Z,18.83
2023-02-23T05:05:05.398Z,13.63
2023-02-23T05:08:08.486Z,15.93
2023-02-23T05:11:13.172Z,15.53
2023-02-23T05:14:16.703Z,18.00
2023-02-23T05:17:19.625Z,13.27
2023-02-23T05:20:23.406Z,16.20
2023-02-23T05:23:26.365Z,17.47
2023-02-23T05:26:29.426Z,13.10
2023-02-23T05:29:33.587Z,12.95
2023-02-23T05:32:37.503Z,10.75
2023-02-23T05:35:42.432Z,16.17
2023-02-23T05:38:47.076Z,16.35
2023-02-23T05:41:51.103Z,11.30
2023-02-23T05:44:54.006Z,11.43
2023-02-23T05:47:57.349Z,13.63
2023-02-23T05:51:05.570Z,10.60
2023-02-23T05:54:10.053Z,15.63
2023-02-23T05:57:13.266Z,19.48
2023-02-23T06:00:18.589Z,11.63
2023-02-23T06:03:23.183Z,8.77
2023-02-23T06:06:29.233Z,16.25
2023-02-23T06:09:32.139Z,12.05
2023-02-23T06:12:35.553Z,16.83
2023-02-23T06:15:38.920Z,16.53
2023-02-23T06:18:42.011Z,18.10
2023-02-23T06:21:45.585Z,15.65
2023-02-23T06:24:50.696Z,37.72
2023-02-23T06:27:55.319Z,11.73
2023-02-23T06:30:59.070Z,10.07
2023-02-23T06:34:02.785Z,10.95
2023-02-23T06:37:09.162Z,10.27
2023-02-23T06:40:12.692Z,10.43
2023-02-23T06:43:16.739Z,6.70
2023-02-23T06:46:20.491Z,12.80
2023-02-23T06:49:24.557Z,11.65
2023-02-23T06:52:28.170Z,10.33
2023-02-23T06:55:31.953Z,12.60
2023-02-23T06:58:34.851Z,10.75
2023-02-23T07:01:38.692Z,9.68
2023-02-23T07:04:42.321Z,10.20
2023-02-23T07:07:46.067Z,9.85
2023-02-23T07:10:49.100Z,5.95
2023-02-23T07:13:52.042Z,12.07
2023-02-23T07:16:56.021Z,6.82
2023-02-23T07:19:59.032Z,6.50
2023-02-23T07:23:02.940Z,6.63
2023-02-23T07:26:06.730Z,6.85
2023-02-23T07:29:13.293Z,6.60
2023-02-23T07:32:16.431Z,8.68
2023-02-23T07:35:20.408Z,6.78
2023-02-23T07:38:23.352Z,9.23
2023-02-23T07:41:26.966Z,7.27
2023-02-23T07:44:29.790Z,5.97
2023-02-23T07:47:33.117Z,12.57
2023-02-23T07:50:36.277Z,8.35
2023-02-23T07:53:41.525Z,6.47
2023-02-23T07:56:45.201Z,16.48
2023-02-23T07:59:49.665Z,5.40
2023-02-23T08:02:53.893Z,5.88
2023-02-23T08:05:57.895Z,12.32
2023-02-23T08:09:02.419Z,18.33
2023-02-23T08:12:06.903Z,12.30
2023-02-23T08:15:11.375Z,8.95
2023-02-23T08:18:15.231Z,9.88
2023-02-23T08:21:19.575Z,20.98
2023-02-23T08:24:23.393Z,15.45
2023-02-23T08:27:27.485Z,12.65
2023-02-23T08:30:32.278Z,4.20
2023-02-23T08:33:36.217Z,6.32
2023-02-23T08:36:39.768Z,8.98
2023-02-23T08:39:43.674Z,13.98
2023-02-23T08:42:46.920Z,13.02
2023-02-23T08:45:50.597Z,11.18
2023-02-23T08:48:54.291Z,9.48
2023-02-23T08:51:57.458Z,6.50
2023-02-23T08:55:01.091Z,7.67
2023-02-23T08:58:09.133Z,12.20
2023-02-23T09:01:22.479Z,15.20
2023-02-23T09:04:26.386Z,9.98
2023-02-23T09:07:29.673Z,9.37
2023-02-23T09:10:34.377Z,13.80
2023-02-23T09:13:37.369Z,13.25
2023-02-23T09:16:40.642Z,7.22
2023-02-23T09:19:44.129Z,20.57
2023-02-23T09:22:50.534Z,11.73
2023-02-23T09:25:54.251Z,10.68
2023-02-23T09:29:00.814Z,15.95
2023-02-23T09:32:04.778Z,15.33
2023-02-23T09:35:09.178Z,19.38
2023-02-23T09:38:12.125Z,14.95
2023-02-23T09:42:01.475Z,16.30
2023-02-23T09:45:16.125Z,13.90
2023-02-23T09:48:28.284Z,18.15
2023-02-23T09:51:38.707Z,26.10
2023-02-23T09:54:42.152Z,19.00
2023-02-23T09:57:49.133Z,21.65
2023-02-23T10:01:07.637Z,17.02
2023-02-23T10:04:38.373Z,22.15
2023-02-23T10:08:00.849Z,31.63
2023-02-23T10:11:17.744Z,32.58
2023-02-23T10:14:40.345Z,38.45
2023-02-23T10:18:08.270Z,43.38
2023-02-23T10:21:21.293Z,60.33
2023-02-23T10:24:33.624Z,97.80
2023-02-23T10:27:44.732Z,252.45
2023-02-23T10:30:48.875Z,198.02
2023-02-23T10:33:54.003Z,265.38
2023-02-23T10:37:03.247Z,203.73
2023-02-23T10:40:08.571Z,113.97
2023-02-23T10:43:14.167Z,123.27
2023-02-23T10:46:23.651Z,146.95
2023-02-23T10:49:51.346Z,140.65
2023-02-23T10:53:08.142Z,234.27
2023-02-23T10:56:19.002Z,83.50
2023-02-23T10:59:23.263Z,38.30
2023-02-23T11:02:27.773Z,30.27
2023-02-23T11:05:47.047Z,22.45
2023-02-23T11:08:50.650Z,53.90
2023-02-23T11:11:59.007Z,42.13
2023-02-23T11:15:46.501Z,52.87
2023-02-23T11:19:02.645Z,64.60
2023-02-23T11:22:07.441Z,55.13
2023-02-23T11:25:30.194Z,36.63
2023-02-23T11:28:38.584Z,37.85
2023-02-23T11:31:49.635Z,56.85
2023-02-23T11:35:12.979Z,49.65
2023-02-23T11:38:30.244Z,46.20
2023-02-23T11:41:35.746Z,45.53
2023-02-23T11:44:39.591Z,37.38
2023-02-23T11:47:49.445Z,49.60
2023-02-23T11:50:55.136Z,79.78
2023-02-23T11:54:00.889Z,106.05
2023-02-23T11:57:04.848Z,88.60
2023-02-23T12:00:14.822Z,104.55
2023-02-23T12:03:24.258Z,83.53
2023-02-23T12:06:39.521Z,81.53
2023-02-23T12:09:46.027Z,68.00
2023-02-23T12:13:24.014Z,84.60
2023-02-23T12:16:34.224Z,74.50
2023-02-23T12:19:47.624Z,70.70
2023-02-23T12:23:08.883Z,57.20
2023-02-23T12:26:19.745Z,53.13
2023-02-23T12:29:45.375Z,69.03
2023-02-23T12:32:49.651Z,94.63
2023-02-23T12:36:02.709Z,116.97
2023-02-23T12:39:22.168Z,64.07
2023-02-23T12:42:39.837Z,64.28
2023-02-23T12:45:53.850Z,63.75
2023-02-23T12:49:14.775Z,70.18
2023-02-23T12:52:26.436Z,88.00
2023-02-23T12:55:42.431Z,89.72
2023-02-23T12:58:58.129Z,79.57
2023-02-23T13:02:09.310Z,70.60
2023-02-23T13:05:29.451Z,60.20
2023-02-23T13:08:48.564Z,75.32
2023-02-23T13:12:13.213Z,105.53
2023-02-23T13:15:31.983Z,103.63
2023-02-23T13:18:42.328Z,56.45
2023-02-23T13:21:56.934Z,58.45
2023-02-23T13:25:05.395Z,44.07
2023-02-23T13:28:18.600Z,52.67
2023-02-23T13:31:24.829Z,64.25
2023-02-23T13:34:34.543Z,54.03
2023-02-23T13:38:18.915Z,48.10
2023-02-23T13:41:43.632Z,60.78
2023-02-23T13:45:23.669Z,105.43
2023-02-23T13:48:41.812Z,98.28
2023-02-23T13:52:03.513Z,66.75
2023-02-23T13:55:29.452Z,47.33
2023-02-23T13:58:38.014Z,81.90
2023-02-23T14:01:46.073Z,44.47
2023-02-23T14:04:50.841Z,101.07
2023-02-23T14:08:05.220Z,123.40
2023-02-23T14:11:08.517Z,114.82
2023-02-23T14:14:36.939Z,98.82
2023-02-23T14:17:41.435Z,89.43
2023-02-23T14:21:10.324Z,59.22
2023-02-23T14:24:25.184Z,142.88
2023-02-23T14:27:44.584Z,154.93
2023-02-23T14:30:53.849Z,258.30
2023-02-23T14:34:01.432Z,157.73
2023-02-23T14:37:26.107Z,245.43
2023-02-23T14:40:35.764Z,173.03
2023-02-23T14:43:39.737Z,139.45
2023-02-23T14:46:56.310Z,141.02
2023-02-23T14:50:03.840Z,131.90
2023-02-23T14:53:15.694Z,128.25
2023-02-23T14:56:32.587Z,174.65
2023-02-23T14:59:43.537Z,136.57
2023-02-23T15:03:14.601Z,95.47
2023-02-23T15:06:17.589Z,106.55
2023-02-23T15:09:31.594Z,118.57
2023-02-23T15:12:39.736Z,84.03
2023-02-23T15:15:47.878Z,94.82
2023-02-23T15:18:52.922Z,105.05
2023-02-23T15:21:58.876Z,79.45
2023-02-23T15:25:10.369Z,89.88
2023-02-23T15:28:26.266Z,76.63
2023-02-23T15:31:31.814Z,74.65
2023-02-23T15:34:36.150Z,60.83
2023-02-23T15:37:45.326Z,74.35
2023-02-23T15:40:54.186Z,41.35
2023-02-23T15:44:08.005Z,37.37
2023-02-23T15:47:29.336Z,61.53
2023-02-23T15:50:37.211Z,70.30
2023-02-23T15:53:42.235Z,41.97
2023-02-23T15:56:50.274Z,85.63
2023-02-23T15:59:55.073Z,135.85
2023-02-23T16:02:58.397Z,177.57
2023-02-23T16:06:01.333Z,63.30
2023-02-23T16:09:27.018Z,101.65
2023-02-23T16:12:33.882Z,102.30
2023-02-23T16:15:39.409Z,103.30
2023-02-23T16:18:44.158Z,160.02
2023-02-23T16:21:57.614Z,143.98
2023-02-23T16:25:05.769Z,50.28
2023-02-23T16:28:16.256Z,138.68
2023-02-23T16:31:28.565Z,156.93
2023-02-23T16:34:45.534Z,154.27
2023-02-23T16:38:05.296Z,121.50
2023-02-23T16:41:18.020Z,136.40
2023-02-23T16:44:26.350Z,140.98
2023-02-23T16:47:49.221Z,90.13
2023-02-23T16:50:53.226Z,99.22
2023-02-23T16:53:57.099Z,91.03
2023-02-23T16:57:00.803Z,69.38
2023-02-23T17:00:16.272Z,116.70
2023-02-23T17:03:23.642Z,61.83
2023-02-23T17:06:27.715Z,63.20
2023-02-23T17:09:30.645Z,80.70
2023-02-23T17:12:34.050Z,72.43
2023-02-23T17:15:40.089Z,55.17
2023-02-23T17:18:43.968Z,50.57
2023-02-23T17:21:47.545Z,124.43
2023-02-23T17:24:50.584Z,58.97
2023-02-23T17:27:58.575Z,58.38
2023-02-23T17:31:04.061Z,72.80
2023-02-23T17:34:07.957Z,76.82
2023-02-23T17:37:11.155Z,65.55
2023-02-23T17:40:18.956Z,56.53
2023-02-23T17:43:24.152Z,51.65
2023-02-23T17:46:28.054Z,54.65
2023-02-23T17:49:31.371Z,63.77
2023-02-23T17:52:35.176Z,56.33
2023-02-23T17:55:38.520Z,58.60
2023-02-23T17:58:42.279Z,59.78
2023-02-23T18:01:48.179Z,24.83
2023-02-23T18:04:52.617Z,50.03
2023-02-23T18:07:55.846Z,22.17
2023-02-23T18:10:59.404Z,40.93
2023-02-23T18:14:05.650Z,13.50
2023-02-23T18:17:09.397Z,36.65
2023-02-23T18:20:15.745Z,33.17
2023-02-23T18:23:20.888Z,41.67
2023-02-23T18:26:25.559Z,34.40
2023-02-23T18:29:30.528Z,39.53
2023-02-23T18:32:33.550Z,43.75
2023-02-23T18:35:41.895Z,22.17
2023-02-23T18:38:45.964Z,130.20
2023-02-23T18:41:50.771Z,43.17
2023-02-23T18:44:54.317Z,55.95
2023-02-23T18:47:57.444Z,43.92
2023-02-23T18:51:02.418Z,109.80
2023-02-23T18:54:11.020Z,59.50
2023-02-23T18:57:14.309Z,45.03
2023-02-23T19:00:19.706Z,78.75
2023-02-23T19:03:23.005Z,36.95
2023-02-23T19:06:27.392Z,78.43
2023-02-23T19:09:31.369Z,109.05
2023-02-23T19:12:34.529Z,93.73
2023-02-23T19:15:37.921Z,60.80
2023-02-23T19:18:41.802Z,60.80
2023-02-23T19:21:45.549Z,52.50
2023-02-23T19:24:49.410Z,43.42
2023-02-23T19:27:52.682Z,38.10
2023-02-23T19:31:03.081Z,49.67
2023-02-23T19:34:09.581Z,56.95
2023-02-23T19:37:13.005Z,56.90
2023-02-23T19:40:23.692Z,60.20
2023-02-23T19:43:26.891Z,77.40
2023-02-23T19:46:30.688Z,104.05
2023-02-23T19:49:34.258Z,127.90
2023-02-23T19:52:39.614Z,72.00
2023-02-23T19:55:42.746Z,90.93
2023-02-23T19:58:47.166Z,171.50
2023-02-23T20:01:51.929Z,74.35
2023-02-23T20:04:55.884Z,83.03
2023-02-23T20:08:00.030Z,113.40
2023-02-23T20:11:06.613Z,128.10
2023-02-23T20:14:11.441Z,39.43
2023-02-23T20:17:15.297Z,99.60
2023-02-23T20:20:20.261Z,106.32
2023-02-23T20:23:24.175Z,79.80
2023-02-23T20:26:30.363Z,82.53
2023-02-23T20:29:35.087Z,102.40
2023-02-23T20:32:39.442Z,104.85
2023-02-23T20:35:43.355Z,77.75
2023-02-23T20:38:46.270Z,108.85
2023-02-23T20:41:54.322Z,38.65
2023-02-23T20:44:58.004Z,41.40
2023-02-23T20:48:02.176Z,88.93
2023-02-23T20:51:07.737Z,34.00
2023-02-23T20:54:11.998Z,23.90
2023-02-23T20:57:14.868Z,64.05
2023-02-23T21:00:23.605Z,41.33
2023-02-23T21:03:26.638Z,39.58
2023-02-23T21:06:33.073Z,45.28
2023-02-23T21:09:36.159Z,70.85
2023-02-23T21:12:39.454Z,50.67
2023-02-23T21:15:45.131Z,22.90
2023-02-23T21:19:04.663Z,19.25
2023-02-23T21:22:07.707Z,55.78
2023-02-23T21:25:12.728Z,33.83
2023-02-23T21:28:16.636Z,90.88
2023-02-23T21:31:20.849Z,43.08
2023-02-23T21:34:24.715Z,21.20
2023-02-23T21:37:27.981Z,93.60
2023-02-23T21:40:31.824Z,62.88
2023-02-23T21:43:37.417Z,83.95
2023-02-23T21:46:41.006Z,40.80
2023-02-23T21:49:50.026Z,43.50
2023-02-23T21:52:58.353Z,50.00
2023-02-23T21:56:07.905Z,54.90
2023-02-23T21:59:11.388Z,63.70
2023-02-23T22:02:14.804Z,76.65
2023-02-23T22:05:19.451Z,68.07
2023-02-23T22:08:22.690Z,88.05
2023-02-23T22:11:27.998Z,51.38
2023-02-23T22:14:31.196Z,51.35
2023-02-23T22:17:36.860Z,38.83
2023-02-23T22:20:45.770Z,40.78
2023-02-23T22:23:50.677Z,36.58
2023-02-23T22:26:56.521Z,25.63
2023-02-23T22:30:02.150Z,54.20
2023-02-23T22:33:05.291Z,31.70
2023-02-23T22:36:11.282Z,32.30
2023-02-23T22:39:19.154Z,33.80
2023-02-23T22:42:25.275Z,59.00
2023-02-23T22:45:28.951Z,55.33
2023-02-23T22:48:32.127Z,60.07
2023-02-23T22:51:35.355Z,12.57
2023-02-23T22:54:40.309Z,51.05
2023-02-23T22:57:44.465Z,27.33
2023-02-23T23:01:03.846Z,38.95
2023-02-23T23:04:10.938Z,27.00
2023-02-23T23:07:15.055Z,33.63
2023-02-23T23:10:19.320Z,20.83
2023-02-23T23:13:24.405Z,24.02
2023-02-23T23:16:32.548Z,29.20
2023-02-23T23:19:39.425Z,22.07
2023-02-23T23:22:42.523Z,31.30
2023-02-23T23:25:49.404Z,31.35
2023-02-23T23:28:58.489Z,43.13
2023-02-23T23:32:05.607Z,37.63
2023-02-23T23:35:14.013Z,23.38
2023-02-23T23:38:17.814Z,28.42
2023-02-23T23:41:21.587Z,12.02
2023-02-23T23:44:29.955Z,36.40
2023-02-23T23:47:32.960Z,50.38
2023-02-23T23:50:37.109Z,41.70
2023-02-23T23:53:41.025Z,28.55
2023-02-23T23:56:45.330Z,36.28
2023-02-23T23:59:49.475Z,39.77
